Time;durP1;ratioP1;P1;durP2;ratioP2;P2;SDS_P1;SDS_P2;PMS_P1;PMS_P2;Temp;Humidity;BMP_temperature;BMP_pressure;BME280_temperature;BME280_humidity;BME280_pressure;Samples;Min_cycle;Max_cycle;Signal;HPM_P1;HPM_P2
2021/08/13 00:01:57;;;;;;;;;;;18.80;92.40;;;18.52;83.90;100883.44;5030837;28;19971;-84
2021/08/13 00:04:24;;;;;;;;;;;18.80;92.40;;;18.51;84.07;100884.53;5030603;28;20024;-84
2021/08/13 00:06:51;;;;;;;;;;;18.80;92.60;;;18.52;83.98;100875.16;5030422;28;19964;-84
2021/08/13 00:09:21;;;;;;;;;;;18.70;92.70;;;18.49;84.19;100886.66;5030678;28;20015;-84
2021/08/13 00:11:50;;;;;;;;;;;18.70;92.80;;;18.46;84.40;100885.19;5031034;28;20568;-84
2021/08/13 00:14:17;;;;;;;;;;;18.80;92.90;;;18.41;84.57;100892.44;5070761;23;20001;-85
2021/08/13 00:16:46;;;;;;;;;;;18.70;92.90;;;18.41;84.68;100882.28;5069550;28;19928;-86
2021/08/13 00:19:14;;;;;;;;;;;18.80;93.10;;;18.41;84.47;100884.19;5068953;28;19981;-87
2021/08/13 00:21:41;;;;;;;;;;;18.70;93.10;;;18.40;84.79;100896.28;5070336;28;20010;-86
2021/08/13 00:24:08;;;;;;;;;;;18.70;93.20;;;18.39;85.11;100894.59;5070265;28;20406;-86
2021/08/13 00:26:35;;;;;;;;;;;18.70;93.20;;;18.40;84.87;100896.28;5070034;28;20026;-86
2021/08/13 00:29:04;;;;;;;;;;;18.70;93.20;;;18.38;85.06;100893.75;5068764;28;20686;-86
2021/08/13 00:31:31;;;;;;;;;;;18.70;93.30;;;18.36;85.05;100891.22;5065396;28;19928;-86
2021/08/13 00:33:59;;;;;;;;;;;18.70;93.30;;;18.34;85.24;100882.34;5068517;28;19932;-85
2021/08/13 00:36:26;;;;;;;;;;;18.70;93.50;;;18.35;85.08;100884.03;5068381;28;19960;-85
2021/08/13 00:38:54;;;;;;;;;;;18.70;93.60;;;18.33;85.42;100891.69;5068513;28;20408;-86
2021/08/13 00:41:22;;;;;;;;;;;18.60;93.30;;;18.32;85.10;100884.47;5068499;28;19932;-85
2021/08/13 00:43:51;;;;;;;;;;;18.60;93.40;;;18.31;85.32;100882.78;5068322;28;20044;-85
2021/08/13 00:46:21;;;;;;;;;;;18.60;93.50;;;18.29;85.38;100893.19;5069570;28;19935;-86
2021/08/13 00:49:03;;;;;;;;;;;18.70;93.70;;;18.28;85.51;100898.94;5068401;28;19928;-87
2021/08/13 00:51:40;;;;;;;;;;;18.60;93.60;;;18.28;85.54;100890.69;5068132;28;19946;-86
2021/08/13 00:54:11;;;;;;;;;;;18.60;93.60;;;18.27;85.49;100891.75;5067453;28;19928;-86
2021/08/13 00:56:44;;;;;;;;;;;18.60;93.70;;;18.26;85.64;100895.56;5067824;28;20015;-86
2021/08/13 00:59:33;;;;;;;;;;;18.60;93.80;;;18.24;85.81;100889.44;5068167;28;19924;-86
2021/08/13 01:02:30;;;;;;;;;;;18.60;93.80;;;18.24;85.75;100901.31;5060434;28;19932;-86
2021/08/13 01:05:14;;;;;;;;;;;18.50;93.80;;;18.21;85.81;100898.16;5068031;28;20015;-86
2021/08/13 01:07:41;;;;;;;;;;;18.50;93.90;;;18.18;85.71;100899.44;5067685;28;19928;-86
2021/08/13 01:10:10;;;;;;;;;;;18.50;93.80;;;18.19;85.84;100895.63;5067904;28;19950;-86
2021/08/13 01:12:54;;;;;;;;;;;18.50;93.80;;;18.19;85.66;100892.88;5068004;28;19931;-86
2021/08/13 01:15:23;;;;;;;;;;;18.50;93.80;;;18.19;85.77;100889.28;5067773;28;20403;-86
2021/08/13 01:17:58;;;;;;;;;;;18.50;93.90;;;18.17;85.54;100895.84;5067647;28;19935;-85
2021/08/13 01:20:37;;;;;;;;;;;18.50;93.90;;;18.14;85.68;100887.19;5067992;28;19929;-86
2021/08/13 01:23:10;;;;;;;;;;;18.50;94.00;;;18.13;85.57;100896.53;5067532;28;20388;-86
2021/08/13 01:25:44;;;;;;;;;;;18.50;94.00;;;18.11;85.68;100890.41;5067361;28;19935;-86
2021/08/13 01:28:18;;;;;;;;;;;18.40;93.90;;;18.10;85.86;100896.97;5067377;28;19991;-86
2021/08/13 01:30:45;;;;;;;;;;;18.40;93.90;;;18.09;85.64;100898.06;5067669;28;20383;-86
2021/08/13 01:33:14;;;;;;;;;;;18.40;93.90;;;18.10;85.68;100903.31;5067338;28;19928;-86
2021/08/13 01:35:46;;;;;;;;;;;18.40;93.90;;;18.08;85.50;100888.94;5067564;28;19936;-86
2021/08/13 01:38:16;;;;;;;;;;;18.40;94.00;;;18.06;85.88;100891.06;5067145;28;19935;-86
2021/08/13 01:40:47;;;;;;;;;;;18.40;94.10;;;18.05;85.90;100889.41;5067342;28;20152;-86
2021/08/13 01:43:17;;;;;;;;;;;18.30;94.10;;;18.04;85.90;100897.88;5067221;28;20389;-86
2021/08/13 01:45:46;;;;;;;;;;;18.30;94.10;;;18.04;85.83;100892.38;5067271;28;19976;-86
2021/08/13 01:48:16;;;;;;;;;;;18.30;94.10;;;18.02;85.95;100895.34;5067128;28;19932;-86
2021/08/13 01:50:45;;;;;;;;;;;18.30;94.10;;;18.02;85.84;100897.25;5067270;28;19960;-86
2021/08/13 01:53:16;;;;;;;;;;;18.30;94.20;;;18.00;85.87;100891.16;5067141;28;20027;-86
2021/08/13 01:55:46;;;;;;;;;;;18.30;94.30;;;17.98;86.04;100889.44;5067236;28;20392;-86
2021/08/13 01:58:16;;;;;;;;;;;18.30;94.30;;;17.98;85.89;100894.94;5067040;28;19929;-86
2021/08/13 02:00:45;;;;;;;;;;;18.30;94.40;;;17.96;86.00;100897.09;5067204;28;20469;-86
2021/08/13 02:03:15;;;;;;;;;;;18.30;94.40;;;17.94;86.01;100893.72;5066897;28;19936;-86
2021/08/13 02:05:43;;;;;;;;;;;18.30;94.50;;;17.93;86.28;100899.44;5070265;28;20312;-87
2021/08/13 02:08:12;;;;;;;;;;;18.20;94.40;;;17.92;86.23;100895.03;5071170;28;20402;-86
2021/08/13 02:10:44;;;;;;;;;;;18.20;94.40;;;17.90;86.20;100892.47;5071388;28;19928;-86
2021/08/13 02:13:13;;;;;;;;;;;18.20;94.50;;;17.88;86.32;100899.28;5071227;28;19932;-86
2021/08/13 02:15:49;;;;;;;;;;;18.20;94.50;;;17.85;86.29;100906.06;5071069;28;19935;-86
2021/08/13 02:18:21;;;;;;;;;;;18.20;94.60;;;17.85;86.49;100900.56;5071235;28;19929;-86
2021/08/13 02:20:49;;;;;;;;;;;18.20;94.70;;;17.86;86.54;100895.88;5071218;28;20432;-86
2021/08/13 02:23:19;;;;;;;;;;;18.20;94.70;;;17.85;86.55;100895.06;5070989;28;20381;-86
2021/08/13 02:25:49;;;;;;;;;;;18.20;94.80;;;17.85;86.47;100884.03;5071058;28;19924;-87
2021/08/13 02:28:19;;;;;;;;;;;18.20;94.80;;;17.84;86.57;100885.13;5068100;28;20669;-86
2021/08/13 02:30:46;;;;;;;;;;;18.20;94.80;;;17.82;86.52;100878.97;5070754;28;20443;-86
2021/08/13 02:33:14;;;;;;;;;;;18.20;94.80;;;17.83;86.55;100880.63;5070843;28;19928;-86
2021/08/13 02:35:45;;;;;;;;;;;18.20;94.80;;;17.80;86.62;100883.88;5070842;28;19932;-86
2021/08/13 02:38:15;;;;;;;;;;;18.10;94.80;;;17.78;86.70;100878.56;5070660;28;19932;-86
2021/08/13 02:40:46;;;;;;;;;;;18.10;94.80;;;17.78;86.77;100883.22;5070636;28;19936;-86
2021/08/13 02:43:21;;;;;;;;;;;18.10;94.80;;;17.78;86.58;100885.97;5070648;28;20396;-86
2021/08/13 02:45:53;;;;;;;;;;;18.10;94.90;;;17.76;86.49;100880.72;5070479;28;19928;-86
2021/08/13 02:48:21;;;;;;;;;;;18.10;94.90;;;17.74;86.59;100879.22;5070574;28;19955;-85
2021/08/13 02:50:52;;;;;;;;;;;18.10;94.90;;;17.76;86.57;100890.84;5070544;28;19924;-86
2021/08/13 02:53:22;;;;;;;;;;;18.00;94.70;;;17.74;86.47;100881.97;5070495;28;20014;-86
2021/08/13 02:55:54;;;;;;;;;;;18.00;94.70;;;17.72;86.57;100884.94;5070551;28;19938;-86
2021/08/13 02:58:25;;;;;;;;;;;18.00;94.80;;;17.73;86.49;100888.56;5070459;28;19928;-86
2021/08/13 03:00:53;;;;;;;;;;;18.00;94.80;;;17.71;86.50;100887.94;5070575;28;20293;-86
2021/08/13 03:03:21;;;;;;;;;;;18.00;94.90;;;17.69;86.43;100879.91;5070414;28;19928;-87
2021/08/13 03:05:52;;;;;;;;;;;17.90;94.90;;;17.68;86.33;100877.38;5070238;28;19952;-86
2021/08/13 03:08:20;;;;;;;;;;;17.90;94.90;;;17.66;86.48;100876.75;5070210;28;19978;-86
2021/08/13 03:10:48;;;;;;;;;;;17.90;95.00;;;17.66;86.62;100863.81;5070212;28;19967;-86
2021/08/13 03:13:22;;;;;;;;;;;17.90;95.20;;;17.65;86.88;100869.53;5070056;28;20758;-86
2021/08/13 03:15:50;;;;;;;;;;;18.00;95.40;;;17.65;87.12;100867.66;5069399;28;20300;-85
2021/08/13 03:18:20;;;;;;;;;;;18.00;95.40;;;17.65;87.15;100878.66;5069639;28;19935;-85
2021/08/13 03:20:50;;;;;;;;;;;18.00;95.40;;;17.65;87.39;100877.81;5069998;28;20023;-86
2021/08/13 03:23:17;;;;;;;;;;;18.00;95.40;;;17.65;87.45;100883.31;5071300;28;19928;-86
2021/08/13 03:25:45;;;;;;;;;;;18.00;95.40;;;17.66;87.44;100876.75;5069958;28;19924;-86
2021/08/13 03:28:17;;;;;;;;;;;18.00;95.30;;;17.65;87.22;100875.06;5069889;28;20354;-86
2021/08/13 03:30:46;;;;;;;;;;;18.00;95.30;;;17.63;87.20;100879.94;5069755;28;19997;-86
2021/08/13 03:33:18;;;;;;;;;;;18.00;95.30;;;17.62;87.28;100878.25;5069741;28;19978;-86
2021/08/13 03:35:45;;;;;;;;;;;17.90;95.40;;;17.63;87.27;100879.94;5069553;28;20385;-86
2021/08/13 03:38:15;;;;;;;;;;;17.90;95.50;;;17.59;87.48;100880.41;5069470;28;20427;-85
2021/08/13 03:40:43;;;;;;;;;;;17.90;95.50;;;17.59;87.50;100883.16;5071287;28;20503;-86
2021/08/13 03:43:10;;;;;;;;;;;17.90;95.50;;;17.59;87.30;100885.91;5069490;28;20028;-86
2021/08/13 03:45:38;;;;;;;;;;;17.90;95.50;;;17.58;87.55;100877.88;5069592;28;19932;-86
2021/08/13 03:48:07;;;;;;;;;;;18.00;95.50;;;17.57;87.52;100877.03;5069150;28;19928;-86
2021/08/13 03:50:35;;;;;;;;;;;17.90;95.50;;;17.57;87.46;100870.66;5069450;28;19932;-86
2021/08/13 03:53:03;;;;;;;;;;;17.90;95.60;;;17.58;87.33;100886.97;5069301;28;19935;-85
2021/08/13 03:55:32;;;;;;;;;;;17.90;95.50;;;17.56;87.35;100875.31;5069164;28;20467;-86
2021/08/13 03:57:59;;;;;;;;;;;17.90;95.50;;;17.55;87.16;100873.66;5069088;28;19936;-87
2021/08/13 04:00:26;;;;;;;;;;;17.90;95.50;;;17.54;87.09;100865.63;5069214;28;20673;-87
2021/08/13 04:02:53;;;;;;;;;;;17.80;95.40;;;17.52;87.09;100859.50;5069109;28;19935;-81
2021/08/13 04:05:22;;;;;;;;;;;17.90;95.50;;;17.50;87.09;100865.22;5069089;28;19956;-80
2021/08/13 04:07:51;;;;;;;;;;;17.80;95.30;;;17.51;87.21;100864.13;5068809;28;19928;-86
2021/08/13 04:10:18;;;;;;;;;;;17.80;95.30;;;17.50;87.26;100865.22;5069014;28;19940;-86
2021/08/13 04:12:47;;;;;;;;;;;17.80;95.30;;;17.50;87.02;100865.22;5070523;28;19936;-85
2021/08/13 04:15:18;;;;;;;;;;;17.80;95.30;;;17.49;86.96;100874.53;5068994;28;20027;-84
2021/08/13 04:17:47;;;;;;;;;;;17.80;95.30;;;17.48;86.98;100870.09;5068657;28;20019;-84
2021/08/13 04:20:15;;;;;;;;;;;17.80;95.30;;;17.46;86.96;100869.47;5068971;28;20292;-84
2021/08/13 04:22:46;;;;;;;;;;;17.80;95.40;;;17.46;86.93;100871.38;5068688;28;19928;-84
2021/08/13 04:25:14;;;;;;;;;;;17.80;95.30;;;17.46;87.14;100872.22;5068820;28;19928;-85
2021/08/13 04:27:42;;;;;;;;;;;17.80;95.30;;;17.44;86.97;100854.25;5068467;28;20392;-84
2021/08/13 04:30:13;;;;;;;;;;;17.80;95.30;;;17.44;86.93;100852.34;5065584;28;19929;-84
2021/08/13 04:32:40;;;;;;;;;;;17.80;95.30;;;17.45;87.08;100855.94;5068612;28;19929;-84
2021/08/13 04:35:13;;;;;;;;;;;17.80;95.20;;;17.43;87.13;100852.56;5070088;28;20019;-84
2021/08/13 04:37:42;;;;;;;;;;;17.80;95.30;;;17.41;87.40;100861.03;5068256;28;19951;-84
2021/08/13 04:40:10;;;;;;;;;;;17.80;95.30;;;17.44;87.42;100863.34;5068533;28;19932;-84
2021/08/13 04:42:51;;;;;;;;;;;17.80;95.30;;;17.43;87.55;100869.91;5068370;28;19934;-84
2021/08/13 04:45:19;;;;;;;;;;;17.90;95.40;;;17.43;87.63;100869.06;5068451;28;19982;-84
2021/08/13 04:47:47;;;;;;;;;;;17.80;95.10;;;17.45;87.67;100867.78;5067960;28;19940;-85
2021/08/13 04:50:16;;;;;;;;;;;17.90;95.10;;;17.45;87.73;100873.28;5068262;28;19971;-85
2021/08/13 04:52:45;;;;;;;;;;;18.00;95.10;;;17.45;88.27;100856.78;5068003;28;19928;-85
2021/08/13 04:55:13;;;;;;;;;;;18.10;95.10;;;17.47;88.22;100853.81;5068067;28;19929;-85
2021/08/13 04:57:40;;;;;;;;;;;18.10;94.90;;;17.49;88.22;100848.91;5067793;28;19959;-85
2021/08/13 05:00:08;;;;;;;;;;;18.20;94.80;;;17.51;88.28;100850.38;5047869;28;19935;-85
2021/08/13 05:02:37;;;;;;;;;;;18.30;94.60;;;17.54;88.29;100846.34;5053396;28;19928;-84
2021/08/13 05:05:05;;;;;;;;;;;18.30;94.30;;;17.55;88.53;100862.66;5068166;28;19939;-86
2021/08/13 05:07:34;;;;;;;;;;;18.40;94.20;;;17.57;88.48;100860.50;5056626;28;19974;-85
2021/08/13 05:10:06;;;;;;;;;;;18.40;94.20;;;17.58;88.91;100851.19;5048002;28;20031;-84
2021/08/13 05:12:33;;;;;;;;;;;18.50;94.20;;;17.62;88.59;100848.00;5047944;28;19924;-89
2021/08/13 05:15:00;;;;;;;;;;;18.50;94.00;;;17.66;88.77;100846.47;5048036;28;19935;-81
2021/08/13 05:17:28;;;;;;;;;;;18.60;93.60;;;17.66;88.85;100847.31;5047624;28;20407;-80
2021/08/13 05:19:56;;;;;;;;;;;18.70;93.50;;;17.67;88.96;100853.66;5047917;28;19928;-83
2021/08/13 05:22:23;;;;;;;;;;;18.70;93.20;;;17.71;88.88;100860.41;5047613;28;19932;-79
2021/08/13 05:24:51;;;;;;;;;;;18.80;93.10;;;17.75;89.52;100858.91;5047472;28;20009;-79
2021/08/13 05:27:19;;;;;;;;;;;18.90;93.20;;;17.77;89.52;100862.28;5047350;28;19932;-79
2021/08/13 05:29:46;;;;;;;;;;;19.00;92.70;;;17.84;89.25;100864.94;5049068;28;20405;-80
2021/08/13 05:32:13;;;;;;;;;;;19.20;92.20;;;17.89;89.17;100865.16;5047940;28;20027;-80
2021/08/13 05:34:40;;;;;;;;;;;19.30;91.70;;;17.95;89.09;100873.38;5049034;28;19975;-80
2021/08/13 05:37:09;;;;;;;;;;;19.50;91.20;;;18.03;89.75;100875.00;5047656;28;19935;-79
2021/08/13 05:39:40;;;;;;;;;;;19.70;90.90;;;18.08;89.95;100882.59;5049092;28;19929;-79
2021/08/13 05:42:08;;;;;;;;;;;19.90;90.10;;;18.12;90.45;100884.66;5080016;28;19933;-81
2021/08/13 05:44:35;;;;;;;;;;;20.00;90.00;;;18.19;89.86;100884.59;5066887;28;19929;-82
2021/08/13 05:47:03;;;;;;;;;;;20.10;89.40;;;18.22;91.17;100888.81;5066616;28;20398;-79
2021/08/13 05:49:30;;;;;;;;;;;20.10;90.00;;;18.24;91.74;100892.19;5066927;28;20434;-84
2021/08/13 05:51:58;;;;;;;;;;;20.10;90.50;;;18.28;91.87;100898.94;5061674;28;19978;-86
2021/08/13 05:54:27;;;;;;;;;;;20.10;90.60;;;18.32;92.16;100897.44;5067919;28;19935;-85
2021/08/13 05:56:54;;;;;;;;;;;20.10;90.60;;;18.35;92.76;100884.03;5066046;28;19979;-84
2021/08/13 05:59:22;;;;;;;;;;;20.20;91.30;;;18.38;93.00;100882.72;5066079;28;19935;-85
2021/08/13 06:01:49;;;;;;;;;;;20.20;91.30;;;18.42;92.88;100881.19;5066555;28;19932;-87
2021/08/13 06:04:16;;;;;;;;;;;20.20;91.40;;;18.45;93.29;100882.66;5066513;28;19928;-82
2021/08/13 06:06:44;;;;;;;;;;;20.20;91.40;;;18.49;92.65;100892.19;5066220;28;19929;-82
2021/08/13 06:09:11;;;;;;;;;;;20.20;91.00;;;18.52;93.12;100883.44;5066444;28;20491;-81
2021/08/13 06:11:40;;;;;;;;;;;20.50;91.20;;;18.59;92.06;100895.22;5067559;28;19928;-82
2021/08/13 06:14:08;;;;;;;;;;;20.70;89.40;;;18.67;91.61;100891.34;5066323;28;19936;-85
2021/08/13 06:16:35;;;;;;;;;;;20.90;88.40;;;18.73;92.43;100888.50;5067531;28;19928;-85
2021/08/13 06:21:34;;;;;;;;;;;21.40;87.40;;;18.87;91.81;100889.22;5092069;28;19927;-78
2021/08/13 06:24:01;;;;;;;;;;;21.60;86.40;;;18.97;91.78;100899.72;5105409;28;19924;-78
2021/08/13 06:26:29;;;;;;;;;;;21.80;86.20;;;19.04;92.24;100902.38;5103762;28;19928;-78
2021/08/13 06:28:59;;;;;;;;;;;21.80;86.40;;;19.08;92.64;100909.97;5112544;28;19928;-79
2021/08/13 06:31:43;;;;;;;;;;;21.70;87.80;;;19.13;93.15;100917.53;5095290;28;20473;-83
2021/08/13 06:34:10;;;;;;;;;;;21.60;88.40;;;19.15;93.67;100915.38;5096314;28;19928;-79
2021/08/13 06:36:37;;;;;;;;;;;21.60;90.00;;;19.20;95.98;100912.78;5094648;28;19932;-79
2021/08/13 06:39:04;;;;;;;;;;;21.70;91.60;;;19.25;95.57;100918.47;5100506;28;19924;-79
2021/08/13 06:41:33;;;;;;;;;;;21.80;90.00;;;19.32;95.42;100915.59;5096059;28;19932;-81
2021/08/13 06:44:23;;;;;;;;;;;21.90;88.90;;;19.42;96.00;100917.81;5096230;28;19928;-79
2021/08/13 06:46:50;;;;;;;;;;;22.00;89.00;;;19.46;97.14;100908.84;5095717;28;20038;-78
2021/08/13 06:49:17;;;;;;;;;;;22.00;90.20;;;19.53;98.59;100911.47;5092811;28;19927;-77
2021/08/13 06:51:44;;;;;;;;;;;22.10;90.00;;;19.57;99.84;100907.16;5097071;28;19954;-78
2021/08/13 06:54:11;;;;;;;;;;;22.20;90.10;;;19.61;98.88;100910.31;5098798;28;19928;-78
2021/08/13 06:56:39;;;;;;;;;;;22.30;89.70;;;19.67;98.65;100913.00;5092454;28;20303;-78
2021/08/13 06:59:06;;;;;;;;;;;22.40;88.90;;;19.74;99.18;100910.16;5099522;28;19940;-78
2021/08/13 07:01:35;;;;;;;;;;;22.50;88.80;;;19.78;98.55;100905.84;5099775;28;20380;-77
2021/08/13 07:04:03;;;;;;;;;;;22.50;88.10;;;19.82;97.26;100906.19;5116531;27;20464;-77
2021/08/13 07:06:30;;;;;;;;;;;22.60;87.60;;;19.88;96.71;100908.88;5099733;28;19932;-77
2021/08/13 07:08:57;;;;;;;;;;;22.70;87.40;;;19.92;96.83;100904.56;5099599;28;19928;-78
2021/08/13 07:11:27;;;;;;;;;;;22.80;87.10;;;19.99;96.42;100900.84;5096866;28;19938;-78
2021/08/13 07:13:54;;;;;;;;;;;22.90;87.00;;;20.02;96.34;100903.97;5099156;28;19959;-78
2021/08/13 07:16:22;;;;;;;;;;;22.90;86.90;;;20.06;95.94;100905.16;5104561;28;19935;-78
2021/08/13 07:18:51;;;;;;;;;;;22.90;86.50;;;20.08;95.69;100911.28;5103403;28;19935;-78
2021/08/13 07:21:18;;;;;;;;;;;22.90;86.50;;;20.08;96.57;100918.75;5098401;28;19928;-77
2021/08/13 07:23:45;;;;;;;;;;;22.90;87.10;;;20.08;96.32;100919.59;5099150;28;20338;-78
2021/08/13 07:26:12;;;;;;;;;;;22.90;86.90;;;20.13;97.34;100913.34;5099275;28;19932;-78
2021/08/13 07:28:40;;;;;;;;;;;23.00;87.10;;;20.18;97.04;100918.16;5097146;28;19928;-78
2021/08/13 07:31:08;;;;;;;;;;;23.00;87.00;;;20.25;98.33;100919.72;5097573;28;19928;-78
2021/08/13 07:33:44;;;;;;;;;;;23.20;87.10;;;20.29;97.79;100931.16;5096239;28;20286;-78
2021/08/13 07:36:12;;;;;;;;;;;23.30;86.70;;;20.38;96.44;100928.88;5098762;28;19928;-78
2021/08/13 07:38:40;;;;;;;;;;;23.40;86.10;;;20.43;95.97;100927.09;5098963;28;19928;-79
2021/08/13 07:41:08;;;;;;;;;;;23.40;85.60;;;20.46;95.50;100928.53;5098672;28;19928;-78
2021/08/13 07:43:35;;;;;;;;;;;23.50;85.40;;;20.47;93.78;100932.97;5098868;28;19931;-79
2021/08/13 07:46:02;;;;;;;;;;;23.50;84.40;;;20.50;93.92;100936.09;5096595;28;19985;-80
2021/08/13 07:48:30;;;;;;;;;;;23.50;84.30;;;20.59;95.59;100936.56;5098673;28;19932;-79
2021/08/13 07:50:57;;;;;;;;;;;23.60;84.80;;;20.64;94.56;100936.72;5096835;28;19924;-80
2021/08/13 07:53:26;;;;;;;;;;;23.70;84.30;;;20.67;95.22;100944.53;5098752;28;20026;-80
2021/08/13 07:55:53;;;;;;;;;;;23.70;84.50;;;20.68;94.67;100949.00;5098204;28;19928;-81
2021/08/13 07:58:20;;;;;;;;;;;23.70;84.50;;;20.68;93.59;100950.91;5098473;28;19939;-81
2021/08/13 08:00:47;;;;;;;;;;;23.70;84.10;;;20.72;93.72;100957.66;5098450;28;19928;-80
2021/08/13 08:03:14;;;;;;;;;;;23.70;83.90;;;20.74;93.12;100968.47;5096680;28;19932;-81
2021/08/13 08:05:41;;;;;;;;;;;23.70;84.20;;;20.78;94.57;100969.69;5100586;28;20395;-81
2021/08/13 08:08:08;;;;;;;;;;;23.70;84.30;;;20.79;92.74;100976.88;5100287;28;19927;-78
2021/08/13 08:10:37;;;;;;;;;;;23.70;84.00;;;20.78;92.38;100986.28;5100333;28;19924;-79
2021/08/13 08:13:04;;;;;;;;;;;23.70;83.70;;;20.81;94.30;100999.59;5099899;28;19927;-79
2021/08/13 08:15:32;;;;;;;;;;;23.70;84.40;;;20.85;95.20;100998.06;5100407;28;19928;-79
2021/08/13 08:18:02;;;;;;;;;;;23.80;84.40;;;20.93;95.25;100996.84;5099349;28;19928;-79
2021/08/13 08:20:29;;;;;;;;;;;23.90;84.70;;;20.94;93.47;100988.28;5099656;28;20476;-80
2021/08/13 08:22:56;;;;;;;;;;;23.90;83.40;;;20.90;90.40;100998.16;5100167;28;19931;-80
2021/08/13 08:25:23;;;;;;;;;;;23.70;82.50;;;20.85;89.92;101007.19;5100575;28;19954;-80
2021/08/13 08:27:51;;;;;;;;;;;23.60;82.90;;;20.88;92.40;101011.41;5099608;28;19935;-80
2021/08/13 08:30:19;;;;;;;;;;;23.60;84.30;;;20.92;92.60;101012.59;5099372;28;20052;-80
2021/08/13 08:32:45;;;;;;;;;;;23.60;84.30;;;20.93;92.81;101008.75;5099931;28;19935;-79
2021/08/13 08:35:13;;;;;;;;;;;23.70;84.60;;;20.97;93.13;101009.13;5100607;28;19924;-79
2021/08/13 08:37:53;;;;;;;;;;;23.70;84.40;;;21.04;94.35;101010.69;5099318;28;19928;-79
2021/08/13 08:40:24;;;;;;;;;;;23.80;84.80;;;21.11;92.13;101016.06;5099778;28;19934;-78
2021/08/13 08:42:56;;;;;;;;;;;23.90;83.50;;;21.20;92.28;101011.00;5099938;28;20276;-78
2021/08/13 08:45:23;;;;;;;;;;;23.90;83.90;;;21.25;91.85;101011.13;5100210;28;20283;-79
2021/08/13 08:47:53;;;;;;;;;;;24.00;83.60;;;21.31;91.87;101003.78;5099341;28;19927;-78
2021/08/13 08:50:21;;;;;;;;;;;24.20;83.50;;;21.39;92.72;101004.22;5098610;28;20561;-78
2021/08/13 08:52:49;;;;;;;;;;;24.20;83.70;;;21.41;89.88;101026.97;5099743;28;19935;-78
2021/08/13 08:55:16;;;;;;;;;;;24.20;82.20;;;21.45;89.20;101047.56;5098383;28;19939;-78
2021/08/13 08:57:45;;;;;;;;;;;24.20;82.30;;;21.44;89.69;101042.31;5098588;28;19931;-78
2021/08/13 09:00:15;;;;;;;;;;;24.20;82.60;;;21.43;90.60;101035.03;5098760;28;19935;-78
2021/08/13 09:02:43;;;;;;;;;;;24.20;82.90;;;21.41;89.95;101032.50;5098831;28;20014;-79
2021/08/13 09:05:11;;;;;;;;;;;24.20;82.50;;;21.39;89.09;101034.69;5098708;28;19939;-79
2021/08/13 09:07:39;;;;;;;;;;;24.20;82.00;;;21.47;90.42;101036.25;5098486;28;19932;-79
2021/08/13 09:10:07;;;;;;;;;;;24.30;82.80;;;21.60;91.76;101035.16;5098553;28;20399;-79
2021/08/13 09:12:34;;;;;;;;;;;24.40;83.10;;;21.71;92.54;101041.75;5098834;28;19928;-79
2021/08/13 09:15:02;;;;;;;;;;;24.60;83.10;;;21.75;87.13;101049.31;5098400;28;19924;-80
2021/08/13 09:17:31;;;;;;;;;;;24.60;80.30;;;21.73;87.74;101053.44;5097900;28;19942;-79
2021/08/13 09:19:59;;;;;;;;;;;24.60;80.50;;;21.70;87.16;101051.97;5098208;28;20379;-79
2021/08/13 09:22:27;;;;;;;;;;;24.60;80.90;;;21.69;89.42;101047.53;5096346;28;19928;-77
2021/08/13 09:24:56;;;;;;;;;;;24.60;81.90;;;21.78;89.39;101053.50;5098260;28;19928;-77
2021/08/13 09:27:46;;;;;;;;;;;24.70;82.00;;;21.86;87.88;101056.75;5098698;28;20038;-77
2021/08/13 09:30:26;;;;;;;;;;;24.80;80.70;;;22.00;87.92;101056.44;5096962;28;20488;-78
2021/08/13 09:32:58;;;;;;;;;;;24.80;80.50;;;21.98;88.51;101070.56;5096505;28;20483;-78
2021/08/13 09:35:36;;;;;;;;;;;24.70;81.20;;;21.93;87.79;101067.66;5096468;28;20257;-79
2021/08/13 09:38:08;;;;;;;;;;;24.70;80.60;;;21.96;87.33;101071.91;5097033;28;19932;-78
2021/08/13 09:40:39;;;;;;;;;;;24.70;80.70;;;21.92;85.65;101068.78;5097986;28;19964;-79
2021/08/13 09:43:07;;;;;;;;;;;24.70;80.00;;;21.98;84.78;101064.19;5096643;28;20412;-79
2021/08/13 09:45:34;;;;;;;;;;;24.70;79.30;;;21.98;84.42;101064.19;5098044;28;20387;-81
2021/08/13 09:48:03;;;;;;;;;;;24.70;79.50;;;22.04;86.62;101068.72;5097155;28;19976;-79
2021/08/13 09:50:37;;;;;;;;;;;24.70;80.20;;;22.06;87.44;101064.59;5098271;28;19928;-79
2021/08/13 09:53:09;;;;;;;;;;;24.70;80.80;;;22.12;86.93;101065.53;5097381;28;20479;-79
2021/08/13 09:55:39;;;;;;;;;;;24.80;79.90;;;22.13;86.84;101055.31;5098655;28;20030;-79
2021/08/13 09:58:11;;;;;;;;;;;24.90;81.20;;;22.13;85.75;101056.16;5096702;28;20068;-80
2021/08/13 10:00:45;;;;;;;;;;;24.90;80.10;;;22.13;84.93;101056.16;5098489;28;20380;-79
2021/08/13 10:03:15;;;;;;;;;;;24.90;79.20;;;22.16;84.40;101060.34;5097074;28;19934;-79
2021/08/13 10:05:42;;;;;;;;;;;24.90;79.70;;;22.16;85.20;101060.34;5098352;28;19927;-79
2021/08/13 10:08:09;;;;;;;;;;;24.90;79.80;;;22.19;85.48;101052.38;5096401;28;20384;-79
2021/08/13 10:10:38;;;;;;;;;;;25.00;79.80;;;22.25;83.38;101051.41;5097073;28;19928;-79
2021/08/13 10:13:07;;;;;;;;;;;25.00;78.20;;;22.23;83.10;101047.19;5096002;28;19928;-79
2021/08/13 10:15:43;;;;;;;;;;;25.00;78.20;;;22.21;85.59;101052.97;5095965;28;19928;-79
2021/08/13 10:18:17;;;;;;;;;;;25.10;78.80;;;22.21;85.32;101049.34;5096334;28;19928;-79
2021/08/13 10:20:50;;;;;;;;;;;25.10;79.00;;;22.22;82.92;101048.28;5096900;28;19932;-79
2021/08/13 10:23:23;;;;;;;;;;;25.10;78.10;;;22.21;82.30;101052.13;5096163;28;19985;-79
2021/08/13 10:25:53;;;;;;;;;;;25.10;77.20;;;22.21;84.33;101039.09;5099463;28;20273;-79
2021/08/13 10:28:28;;;;;;;;;;;25.10;78.40;;;22.22;83.27;101038.03;5101281;28;19985;-80
2021/08/13 10:31:01;;;;;;;;;;;25.00;78.20;;;22.19;84.38;101035.75;5100521;28;19936;-80
2021/08/13 10:33:31;;;;;;;;;;;25.00;78.70;;;22.15;81.42;101034.56;5100309;28;19924;-80
2021/08/13 10:35:59;;;;;;;;;;;25.00;77.10;;;22.18;82.88;101036.84;5100307;28;19924;-80
2021/08/13 10:38:30;;;;;;;;;;;25.00;77.80;;;22.25;85.30;101032.00;5100703;28;19955;-80
2021/08/13 10:40:57;;;;;;;;;;;25.10;78.80;;;22.29;82.56;101045.38;5099759;28;19924;-81
2021/08/13 10:43:30;;;;;;;;;;;25.10;78.20;;;22.30;80.64;101038.75;5100989;28;19959;-80
2021/08/13 10:46:01;;;;;;;;;;;25.10;76.80;;;22.33;78.71;101043.78;5101897;28;19928;-81
2021/08/13 10:48:31;;;;;;;;;;;25.10;74.80;;;22.33;77.12;101049.31;5100759;28;20460;-80
2021/08/13 10:51:02;;;;;;;;;;;25.00;74.20;;;22.35;78.73;101044.34;5100601;28;19967;-79
2021/08/13 10:53:30;;;;;;;;;;;25.00;74.70;;;22.38;78.87;101049.41;5100487;28;20346;-80
2021/08/13 10:55:59;;;;;;;;;;;25.00;74.90;;;22.34;78.16;101045.47;5099750;28;19935;-80
2021/08/13 10:58:48;;;;;;;;;;;25.10;74.60;;;22.34;77.57;101059.34;5099938;28;20023;-81
2021/08/13 11:01:24;;;;;;;;;;;25.10;75.20;;;22.40;78.49;101050.00;5099922;28;19928;-79
2021/08/13 11:04:15;;;;;;;;;;;25.10;75.00;;;22.40;79.19;101050.00;5099718;28;19927;-80
2021/08/13 11:06:49;;;;;;;;;;;25.10;75.30;;;22.39;78.86;101051.09;5099369;28;20440;-81
2021/08/13 11:09:32;;;;;;;;;;;25.20;75.00;;;22.41;82.08;101035.91;5117318;27;19928;-79
2021/08/13 11:12:06;;;;;;;;;;;25.30;76.90;;;22.51;77.78;101046.31;5099858;28;19927;-78
2021/08/13 11:14:45;;;;;;;;;;;25.40;74.40;;;22.49;80.05;101042.13;5099474;28;20483;-77
2021/08/13 11:17:32;;;;;;;;;;;25.30;75.40;;;22.51;79.70;101043.53;5099507;28;19931;-78
2021/08/13 11:20:04;;;;;;;;;;;25.30;75.10;;;22.46;77.28;101043.44;5099007;28;19928;-82
2021/08/13 11:22:39;;;;;;;;;;;25.20;74.20;;;22.49;78.58;101045.72;5099660;28;19939;-82
2021/08/13 11:25:09;;;;;;;;;;;25.10;75.20;;;22.48;78.93;101052.34;5099094;28;19927;-79